Time;durP1;ratioP1;P1;durP2;ratioP2;P2;SDS_P1;SDS_P2;PMS_P1;PMS_P2;Temp;Humidity;BMP_temperature;BMP_pressure;BME280_temperature;BME280_humidity;BME280_pressure;Samples;Min_cycle;Max_cycle;Signal;HPM_P1;HPM_P2
2022/06/01 00:00:56;;;;;;;4.75;4.20;;;12.30;99.90;;;;;;5009134;28;20607;-74
2022/06/01 00:03:30;;;;;;;4.72;4.32;;;12.50;99.90;;;;;;5007562;28;20576;-74
2022/06/01 00:05:57;;;;;;;9.38;5.28;;;12.30;99.90;;;;;;5019390;28;20685;-74
2022/06/01 00:08:25;;;;;;;4.93;4.30;;;12.40;99.90;;;;;;5008716;28;20216;-75
2022/06/01 00:10:53;;;;;;;4.95;4.45;;;12.50;99.90;;;;;;5005344;28;20237;-73
2022/06/01 00:13:21;;;;;;;5.45;4.80;;;12.40;99.90;;;;;;5009428;28;20301;-74
2022/06/01 00:15:50;;;;;;;6.15;5.10;;;12.40;99.90;;;;;;5011327;28;20225;-74
2022/06/01 00:18:18;;;;;;;5.13;4.53;;;12.40;99.90;;;;;;5005375;28;20200;-74
2022/06/01 00:20:46;;;;;;;4.50;4.10;;;12.40;99.90;;;;;;5011936;28;20232;-74
2022/06/01 00:23:13;;;;;;;4.85;4.40;;;12.40;99.90;;;;;;5006054;28;20212;-73
2022/06/01 00:25:41;;;;;;;6.70;5.18;;;12.50;99.90;;;;;;5008822;28;20227;-74
2022/06/01 00:28:08;;;;;;;5.90;5.35;;;12.50;99.90;;;;;;5011733;28;20223;-73
2022/06/01 00:30:35;;;;;;;7.00;4.82;;;12.50;99.90;;;;;;5012284;28;20219;-73
2022/06/01 00:33:03;;;;;;;5.43;4.93;;;12.40;99.90;;;;;;5013108;28;20216;-74
2022/06/01 00:35:32;;;;;;;5.63;5.03;;;12.50;99.90;;;;;;5010281;28;20226;-75
2022/06/01 00:37:59;;;;;;;6.57;4.28;;;12.50;99.90;;;;;;5013319;28;20565;-74
2022/06/01 00:40:28;;;;;;;4.70;4.30;;;12.50;99.90;;;;;;5011904;28;20206;-74
2022/06/01 00:42:58;;;;;;;5.93;5.25;;;12.40;99.90;;;;;;5014844;28;20295;-74
2022/06/01 00:45:27;;;;;;;6.30;4.55;;;12.40;99.90;;;;;;5011707;28;20232;-74
2022/06/01 00:47:54;;;;;;;8.18;4.75;;;12.50;99.90;;;;;;5012816;28;20207;-74
2022/06/01 00:50:24;;;;;;;9.57;5.10;;;12.40;99.90;;;;;;5010657;28;20306;-74
2022/06/01 00:52:57;;;;;;;5.90;4.82;;;12.40;99.90;;;;;;5012827;28;20205;-75
2022/06/01 00:55:29;;;;;;;6.47;4.53;;;12.40;99.90;;;;;;5012374;28;20300;-75
2022/06/01 00:57:59;;;;;;;4.90;4.40;;;12.40;99.90;;;;;;5011781;28;20666;-73
2022/06/01 01:00:28;;;;;;;13.68;5.03;;;12.40;99.90;;;;;;5006595;28;20361;-75
2022/06/01 01:02:57;;;;;;;5.50;4.88;;;12.50;99.90;;;;;;5010994;28;20214;-73
2022/06/01 01:05:25;;;;;;;5.30;4.80;;;12.50;99.90;;;;;;5013295;28;20242;-73
2022/06/01 01:07:54;;;;;;;5.75;4.70;;;12.60;99.90;;;;;;5011580;28;20287;-73
2022/06/01 01:10:21;;;;;;;4.38;3.97;;;12.60;99.90;;;;;;5011967;28;20230;-74
2022/06/01 01:13:04;;;;;;;5.00;4.00;;;12.60;99.90;;;;;;5013161;28;20633;-74
2022/06/01 01:15:35;;;;;;;6.38;5.78;;;12.60;99.90;;;;;;5009403;28;20669;-73
2022/06/01 01:18:06;;;;;;;5.60;5.03;;;12.60;99.90;;;;;;5022799;28;20248;-75
2022/06/01 01:20:35;;;;;;;5.55;5.05;;;12.60;99.90;;;;;;5002831;28;20208;-74
2022/06/01 01:23:09;;;;;;;5.60;5.07;;;12.60;99.90;;;;;;5011357;28;20295;-74
2022/06/01 01:25:39;;;;;;;6.00;5.40;;;12.60;99.90;;;;;;5012585;28;20235;-74
2022/06/01 01:28:10;;;;;;;6.50;4.68;;;12.60;99.90;;;;;;5013536;28;20307;-73
2022/06/01 01:31:02;;;;;;;7.63;5.25;;;12.50;99.90;;;;;;5009920;28;20247;-74
2022/06/01 01:33:30;;;;;;;5.30;4.60;;;12.50;99.90;;;;;;5004864;28;20254;-74
2022/06/01 01:36:02;;;;;;;5.00;4.10;;;12.50;99.90;;;;;;5012094;28;20227;-74
2022/06/01 01:38:46;;;;;;;5.70;5.15;;;12.40;99.90;;;;;;5000182;28;20204;-73
2022/06/01 01:41:16;;;;;;;5.32;4.53;;;12.50;99.90;;;;;;5013058;28;20200;-74
2022/06/01 01:43:50;;;;;;;5.40;4.80;;;12.40;99.90;;;;;;5013343;28;20362;-73
2022/06/01 01:46:17;;;;;;;6.07;5.50;;;12.40;99.90;;;;;;5008466;28;20220;-74
2022/06/01 01:48:44;;;;;;;4.95;4.55;;;12.40;99.90;;;;;;5008504;28;20338;-73
2022/06/01 01:51:12;;;;;;;6.10;5.50;;;12.40;99.90;;;;;;5012674;28;20235;-74
2022/06/01 01:53:39;;;;;;;7.55;5.22;;;12.50;99.90;;;;;;5011875;28;20215;-74
2022/06/01 01:56:31;;;;;;;4.70;4.30;;;12.50;99.90;;;;;;5012072;28;20242;-75
2022/06/01 01:59:17;;;;;;;5.78;5.05;;;12.50;99.90;;;;;;5003836;28;20282;-75
2022/06/01 02:01:55;;;;;;;5.00;4.28;;;12.50;99.90;;;;;;5008993;28;20279;-75
2022/06/01 02:07:23;;;;;;;6.45;5.43;;;12.60;99.90;;;;;;5012159;28;20713;-74
2022/06/01 02:12:42;;;;;;;8.52;7.40;;;12.70;99.90;;;;;;5002997;28;20214;-69
2022/06/01 02:15:11;;;;;;;6.60;6.00;;;12.50;99.90;;;;;;5012721;28;20719;-69
2022/06/01 02:17:41;;;;;;;8.68;7.88;;;12.40;99.90;;;;;;5008624;28;20305;-69
2022/06/01 02:20:13;;;;;;;8.93;7.70;;;12.10;99.90;;;;;;5014053;28;20438;-69
2022/06/01 02:22:42;;;;;;;10.40;7.93;;;12.00;99.90;;;;;;5009578;28;20204;-69
2022/06/01 02:25:12;;;;;;;11.20;7.55;;;11.80;99.90;;;;;;5006809;28;20288;-69
2022/06/01 02:27:43;;;;;;;8.68;7.93;;;11.70;99.90;;;;;;5010606;28;20222;-69
2022/06/01 02:30:16;;;;;;;9.90;8.98;;;11.70;99.90;;;;;;5008138;28;20213;-70
2022/06/01 02:32:43;;;;;;;10.25;9.20;;;11.70;99.90;;;;;;5019382;28;20538;-70
2022/06/01 02:35:14;;;;;;;12.43;10.38;;;11.60;99.90;;;;;;5011650;28;20229;-70
2022/06/01 02:37:44;;;;;;;9.65;8.60;;;11.60;99.90;;;;;;5014907;28;20332;-69
2022/06/01 02:40:16;;;;;;;11.30;10.15;;;11.60;99.90;;;;;;5012427;28;20199;-71
2022/06/01 02:42:50;;;;;;;13.52;10.43;;;11.60;99.90;;;;;;5014353;28;20217;-69
2022/06/01 02:45:20;;;;;;;11.23;10.13;;;11.60;99.90;;;;;;5011019;28;20229;-70
2022/06/01 02:47:47;;;;;;;10.63;9.38;;;11.60;99.90;;;;;;5011498;28;20686;-70
2022/06/01 02:50:19;;;;;;;12.40;11.10;;;11.70;99.90;;;;;;5007825;28;20231;-70
2022/06/01 02:52:46;;;;;;;11.95;10.85;;;11.60;99.90;;;;;;5012929;28;20194;-70
2022/06/01 02:55:16;;;;;;;11.90;10.80;;;11.60;99.90;;;;;;5013269;28;20312;-70
2022/06/01 02:57:43;;;;;;;11.38;10.35;;;11.60;99.90;;;;;;5011115;28;20202;-70
2022/06/01 03:00:17;;;;;;;9.70;8.70;;;11.60;99.90;;;;;;5009071;28;20294;-70
2022/06/01 03:02:45;;;;;;;13.15;10.10;;;11.60;99.90;;;;;;4996802;28;20209;-70
2022/06/01 03:05:13;;;;;;;11.63;10.48;;;11.60;99.90;;;;;;5005184;28;20235;-70
2022/06/01 03:07:40;;;;;;;13.32;12.05;;;11.60;99.90;;;;;;5011200;28;20210;-70
2022/06/01 03:10:07;;;;;;;14.23;12.27;;;11.60;99.90;;;;;;5016746;28;20680;-70
2022/06/01 03:12:34;;;;;;;12.25;11.25;;;11.70;99.90;;;;;;5004478;28;20236;-70
2022/06/01 03:15:01;;;;;;;13.70;12.40;;;11.70;99.90;;;;;;5009498;28;20253;-71
2022/06/01 03:17:30;;;;;;;13.57;12.30;;;11.80;99.90;;;;;;5011226;28;20202;-70
2022/06/01 03:19:57;;;;;;;15.55;12.63;;;11.80;99.90;;;;;;5012355;28;20209;-68
2022/06/01 03:22:26;;;;;;;15.50;12.65;;;11.70;99.90;;;;;;5010833;28;20647;-69
2022/06/01 03:24:53;;;;;;;14.10;11.82;;;11.70;99.90;;;;;;5010427;28;20303;-69
2022/06/01 03:27:20;;;;;;;14.90;13.40;;;11.70;99.90;;;;;;5009741;28;20213;-69
2022/06/01 03:29:55;;;;;;;15.52;12.90;;;11.70;99.90;;;;;;5009271;28;20212;-69
2022/06/01 03:32:22;;;;;;;13.02;11.85;;;11.70;99.90;;;;;;5010268;28;20333;-69
2022/06/01 03:34:52;;;;;;;13.13;11.82;;;11.80;99.90;;;;;;5011130;28;20229;-69
2022/06/01 03:37:19;;;;;;;17.13;15.23;;;11.80;99.90;;;;;;5011138;28;20211;-69
2022/06/01 03:39:47;;;;;;;17.15;13.20;;;11.80;99.90;;;;;;5010978;28;20635;-69
2022/06/01 03:42:13;;;;;;;15.52;14.02;;;11.80;99.90;;;;;;5012450;28;20239;-68
2022/06/01 03:47:25;;;;;;;16.42;14.80;;;11.90;99.90;;;;;;5007858;28;20668;-70
2022/06/01 03:49:54;;;;;;;13.52;11.95;;;11.90;99.90;;;;;;5003712;28;20318;-70
2022/06/01 03:52:21;;;;;;;16.13;14.48;;;11.90;99.90;;;;;;5013510;28;20733;-70
2022/06/01 03:54:48;;;;;;;14.80;13.25;;;11.90;99.90;;;;;;5013051;28;20326;-69
2022/06/01 03:57:14;;;;;;;15.02;13.48;;;11.90;99.90;;;;;;5013142;28;20241;-68
2022/06/01 03:59:41;;;;;;;14.55;13.00;;;11.90;99.90;;;;;;5013096;28;20223;-69
2022/06/01 04:02:08;;;;;;;14.00;12.70;;;11.80;99.90;;;;;;5014946;28;20233;-70
2022/06/01 04:04:36;;;;;;;15.50;13.57;;;11.80;99.90;;;;;;5014599;28;20207;-68
2022/06/01 04:07:05;;;;;;;13.65;12.20;;;11.90;99.90;;;;;;5014618;28;20285;-70
2022/06/01 04:09:32;;;;;;;14.18;12.70;;;11.90;99.90;;;;;;5014770;28;20297;-70
2022/06/01 04:11:59;;;;;;;13.77;12.38;;;12.00;99.90;;;;;;5014250;28;20227;-70
2022/06/01 04:14:27;;;;;;;15.00;13.35;;;12.10;99.90;;;;;;5011478;28;21092;-70
2022/06/01 04:16:54;;;;;;;14.75;11.65;;;12.00;99.90;;;;;;5012829;28;20203;-71
2022/06/01 04:19:21;;;;;;;13.65;12.25;;;12.00;99.90;;;;;;5012952;28;20593;-70
2022/06/01 04:21:51;;;;;;;13.05;11.75;;;12.10;99.90;;;;;;5012020;28;20207;-70
2022/06/01 04:24:23;;;;;;;14.18;12.75;;;12.00;99.90;;;;;;5012213;28;20284;-70
2022/06/01 04:26:50;;;;;;;12.80;11.57;;;12.00;99.90;;;;;;5010089;28;20219;-70
2022/06/01 04:29:16;;;;;;;16.30;13.80;;;12.00;99.90;;;;;;5011683;28;20599;-72
2022/06/01 04:31:44;;;;;;;13.25;11.95;;;12.00;99.90;;;;;;5011811;28;20306;-70
2022/06/01 04:34:12;;;;;;;14.73;12.50;;;12.00;99.90;;;;;;5011612;28;20230;-70
2022/06/01 04:36:39;;;;;;;15.95;14.25;;;12.10;99.90;;;;;;5011735;28;20315;-70
2022/06/01 04:39:06;;;;;;;14.27;12.82;;;12.10;99.90;;;;;;5011170;28;20282;-70
2022/06/01 04:41:38;;;;;;;15.80;14.30;;;12.20;99.90;;;;;;5004098;28;20202;-70
2022/06/01 04:44:05;;;;;;;14.48;13.07;;;12.20;99.90;;;;;;5012227;28;20287;-70
2022/06/01 04:46:32;;;;;;;16.92;13.98;;;12.10;99.90;;;;;;5009025;28;20229;-70
2022/06/01 04:49:00;;;;;;;16.70;14.82;;;12.20;99.90;;;;;;5011958;28;20211;-69
2022/06/01 04:51:27;;;;;;;17.83;15.25;;;12.20;99.90;;;;;;5016571;28;20255;-69
2022/06/01 04:53:53;;;;;;;19.17;17.27;;;12.20;99.90;;;;;;5018290;28;20215;-69
2022/06/01 04:56:20;;;;;;;21.92;17.63;;;12.20;99.90;;;;;;5013473;28;20725;-69
2022/06/01 04:58:48;;;;;;;20.02;17.52;;;12.20;99.90;;;;;;5010796;28;20204;-70
2022/06/01 05:01:15;;;;;;;21.48;15.85;;;12.20;99.90;;;;;;5003746;28;20202;-70
2022/06/01 05:03:42;;;;;;;17.00;15.27;;;12.30;99.90;;;;;;5012547;28;20275;-70
2022/06/01 05:06:09;;;;;;;16.40;14.27;;;12.40;99.90;;;;;;5012131;28;20309;-70
2022/06/01 05:08:36;;;;;;;14.88;13.52;;;12.60;99.90;;;;;;5011651;28;20207;-71
2022/06/01 05:11:04;;;;;;;16.35;14.75;;;12.70;99.90;;;;;;5011770;28;20310;-70
2022/06/01 05:13:31;;;;;;;17.50;13.45;;;13.00;99.90;;;;;;5011967;28;20280;-71
2022/06/01 05:16:02;;;;;;;14.20;12.90;;;13.10;99.90;;;;;;5012034;28;20785;-71
2022/06/01 05:18:29;;;;;;;16.13;12.95;;;13.30;99.90;;;;;;5007258;28;20227;-72
2022/06/01 05:20:56;;;;;;;11.93;10.80;;;13.20;99.90;;;;;;5010585;28;20295;-71
2022/06/01 05:23:25;;;;;;;12.02;10.88;;;13.20;99.90;;;;;;5011538;28;20200;-71
2022/06/01 05:25:54;;;;;;;17.60;13.50;;;13.40;99.90;;;;;;5011973;28;20228;-71
2022/06/01 05:28:27;;;;;;;16.90;15.07;;;13.30;99.90;;;;;;5008649;28;20207;-71
2022/06/01 05:30:59;;;;;;;15.65;11.90;;;13.20;99.90;;;;;;5011028;28;20317;-70
2022/06/01 05:33:27;;;;;;;17.70;12.85;;;13.20;99.90;;;;;;5011875;28;20225;-72
2022/06/01 05:35:54;;;;;;;16.20;14.60;;;13.30;99.90;;;;;;5011531;28;20578;-71
2022/06/01 05:38:21;;;;;;;14.95;13.25;;;13.30;99.90;;;;;;5011431;28;20222;-71
2022/06/01 05:40:48;;;;;;;18.63;16.65;;;13.30;99.90;;;;;;5005408;28;20194;-70
2022/06/01 05:43:18;;;;;;;18.85;15.75;;;13.20;99.90;;;;;;5007922;28;20212;-70
2022/06/01 05:45:45;;;;;;;16.80;15.10;;;13.10;99.90;;;;;;5009305;28;20285;-72
2022/06/01 05:48:15;;;;;;;17.80;15.40;;;13.00;99.90;;;;;;5007473;28;20297;-71
2022/06/01 05:50:43;;;;;;;16.38;14.80;;;13.00;99.90;;;;;;5014606;28;20223;-72
2022/06/01 05:53:10;;;;;;;14.80;13.27;;;12.80;99.90;;;;;;5011894;28;20222;-69
2022/06/01 05:55:38;;;;;;;14.95;13.50;;;12.80;99.90;;;;;;5015042;28;20562;-71
2022/06/01 05:58:13;;;;;;;16.70;13.90;;;12.90;99.90;;;;;;5013152;28;20642;-71
2022/06/01 06:00:40;;;;;;;16.48;12.63;;;13.00;99.90;;;;;;4990558;28;20290;-72
2022/06/01 06:03:07;;;;;;;13.27;11.95;;;13.00;99.90;;;;;;5004825;28;20264;-70
2022/06/01 06:08:20;;;;;;;13.77;12.38;;;13.30;99.90;;;;;;5006840;28;20672;-69
2022/06/01 06:10:48;;;;;;;15.40;12.00;;;13.30;99.90;;;;;;5011205;28;20229;-71
2022/06/01 06:13:15;;;;;;;13.13;11.82;;;13.30;99.90;;;;;;5012230;28;20658;-70
2022/06/01 06:15:42;;;;;;;13.13;11.95;;;13.30;99.90;;;;;;5014427;28;20224;-70
2022/06/01 06:18:12;;;;;;;11.95;10.75;;;13.50;99.90;;;;;;5012974;28;20203;-71
2022/06/01 06:20:42;;;;;;;14.18;11.10;;;13.50;99.90;;;;;;5013978;28;20678;-70
2022/06/01 06:23:09;;;;;;;11.88;10.68;;;13.60;99.90;;;;;;5021856;28;20211;-70
2022/06/01 06:25:36;;;;;;;16.25;11.80;;;13.70;99.90;;;;;;5013796;28;20311;-71
2022/06/01 06:28:03;;;;;;;11.73;9.98;;;13.70;99.90;;;;;;5013676;28;20307;-71
2022/06/01 06:30:30;;;;;;;13.48;11.18;;;13.80;99.90;;;;;;5018536;28;20311;-71
2022/06/01 06:32:57;;;;;;;12.68;11.30;;;13.80;99.90;;;;;;5012042;28;20216;-70
2022/06/01 06:35:24;;;;;;;12.93;11.65;;;13.90;99.90;;;;;;5008231;28;20227;-69
2022/06/01 06:37:53;;;;;;;11.38;10.18;;;13.90;99.90;;;;;;5006418;28;20203;-71
2022/06/01 06:40:21;;;;;;;12.70;10.48;;;13.90;99.90;;;;;;5003633;28;20197;-71
2022/06/01 06:42:48;;;;;;;11.93;9.90;;;14.00;99.90;;;;;;5012951;28;20239;-71
2022/06/01 06:45:15;;;;;;;12.15;10.60;;;14.00;99.90;;;;;;5012305;28;20251;-70
2022/06/01 06:47:42;;;;;;;11.05;9.90;;;14.00;99.90;;;;;;5011227;28;20236;-70
2022/06/01 06:50:11;;;;;;;13.55;12.32;;;14.10;99.90;;;;;;5001283;28;20222;-70
2022/06/01 06:52:39;;;;;;;14.93;12.02;;;14.10;99.90;;;;;;5011908;28;20206;-70
2022/06/01 06:55:09;;;;;;;13.35;12.05;;;14.20;99.90;;;;;;5005933;28;20348;-71
2022/06/01 06:57:37;;;;;;;13.98;12.48;;;14.00;99.90;;;;;;5004144;28;20201;-70
2022/06/01 07:00:07;;;;;;;16.88;13.57;;;13.90;99.90;;;;;;5007488;28;20286;-71
2022/06/01 07:02:35;;;;;;;11.38;10.27;;;13.80;99.90;;;;;;5011584;28;20549;-71
2022/06/01 07:05:02;;;;;;;14.15;12.32;;;13.90;99.90;;;;;;5001806;28;20283;-70
2022/06/01 07:07:29;;;;;;;12.25;11.00;;;14.00;99.90;;;;;;5006239;28;20207;-69
2022/06/01 07:09:56;;;;;;;17.60;14.00;;;13.90;99.90;;;;;;5005319;28;20274;-70
2022/06/01 07:12:24;;;;;;;13.88;12.57;;;13.80;99.90;;;;;;5008590;28;20220;-70
2022/06/01 07:14:51;;;;;;;17.10;15.43;;;13.90;99.90;;;;;;5017403;28;20316;-71
2022/06/01 07:17:18;;;;;;;17.70;15.90;;;13.90;99.90;;;;;;5005629;28;20294;-70
2022/06/01 07:19:45;;;;;;;17.73;15.68;;;13.90;99.90;;;;;;5007565;28;20228;-71
2022/06/01 07:22:12;;;;;;;17.15;15.55;;;14.00;99.90;;;;;;5010276;28;20605;-69
2022/06/01 07:24:40;;;;;;;19.05;17.08;;;14.10;99.90;;;;;;5006804;28;20213;-70
2022/06/01 07:27:07;;;;;;;17.30;15.57;;;14.10;99.90;;;;;;5002497;28;20201;-70
2022/06/01 07:29:35;;;;;;;17.92;16.02;;;14.10;99.90;;;;;;5014020;28;20257;-70
2022/06/01 07:32:02;;;;;;;18.60;16.83;;;14.30;99.90;;;;;;5008162;28;20222;-70
2022/06/01 07:34:29;;;;;;;16.98;15.43;;;14.50;99.90;;;;;;5007031;28;20197;-70
2022/06/01 07:43:05;;;;;;;18.95;17.05;;;14.70;99.90;;;;;;5010303;28;20640;-70
2022/06/01 07:45:13;;;;;;;21.35;19.10;;;15.20;99.90;;;;;;5008031;28;20231;-69
2022/06/01 07:47:40;;;;;;;20.52;18.42;;;15.30;99.90;;;;;;5011068;28;20201;-68
2022/06/01 07:50:08;;;;;;;22.90;18.23;;;15.50;99.90;;;;;;5012370;28;20310;-72
2022/06/01 07:52:35;;;;;;;21.98;19.67;;;15.50;99.90;;;;;;5010730;28;20290;-70
2022/06/01 07:55:02;;;;;;;21.65;19.45;;;15.70;99.90;;;;;;5012253;28;20229;-69
2022/06/01 07:57:29;;;;;;;21.92;19.80;;;15.70;99.90;;;;;;5009097;28;20247;-70
2022/06/01 07:59:56;;;;;;;20.67;18.67;;;15.60;99.90;;;;;;5005378;28;20292;-70
2022/06/01 08:02:25;;;;;;;21.70;18.55;;;15.70;99.90;;;;;;5017967;28;20285;-69
2022/06/01 08:04:52;;;;;;;21.17;18.40;;;15.80;99.90;;;;;;5001061;28;20535;-69
2022/06/01 08:07:18;;;;;;;19.83;17.73;;;15.80;99.90;;;;;;5007978;28;20213;-69
2022/06/01 08:09:47;;;;;;;22.92;20.58;;;15.80;99.90;;;;;;5009024;28;20198;-69
2022/06/01 08:14:58;;;;;;;21.02;18.65;;;15.80;99.90;;;;;;5009896;28;20232;-70
2022/06/01 08:17:27;;;;;;;23.38;20.13;;;15.90;99.90;;;;;;5004274;28;20279;-68
2022/06/01 08:19:53;;;;;;;25.60;20.95;;;15.90;99.90;;;;;;5007261;28;20955;-70
2022/06/01 08:22:20;;;;;;;24.42;22.02;;;16.00;99.90;;;;;;5011292;28;20242;-71
2022/06/01 08:24:47;;;;;;;20.38;18.27;;;16.10;99.90;;;;;;5011225;28;20649;-70
2022/06/01 08:27:14;;;;;;;24.98;21.73;;;16.20;99.90;;;;;;5010930;28;20745;-70
2022/06/01 08:29:41;;;;;;;21.58;19.35;;;16.30;99.90;;;;;;5010292;28;20288;-69
2022/06/01 08:32:09;;;;;;;24.40;22.13;;;16.50;99.90;;;;;;5007809;28;20391;-70
2022/06/01 08:34:38;;;;;;;22.20;19.90;;;16.50;99.90;;;;;;5012556;28;20200;-69
2022/06/01 08:37:07;;;;;;;21.57;19.10;;;16.80;99.90;;;;;;5010469;28;20454;-71
2022/06/01 08:39:34;;;;;;;20.83;18.77;;;16.90;99.90;;;;;;5004967;28;20520;-69
2022/06/01 08:42:02;;;;;;;23.90;21.65;;;16.90;99.90;;;;;;5012449;28;20631;-69
2022/06/01 08:44:32;;;;;;;22.77;20.42;;;17.00;99.90;;;;;;5004971;28;20214;-69
2022/06/01 08:47:11;;;;;;;21.33;19.33;;;16.90;99.90;;;;;;5008709;28;20207;-71
2022/06/01 08:49:40;;;;;;;25.70;21.13;;;17.10;99.90;;;;;;5002142;28;20216;-70
2022/06/01 08:52:08;;;;;;;21.97;19.77;;;17.30;99.90;;;;;;5009348;28;20212;-71
2022/06/01 08:54:35;;;;;;;24.87;22.43;;;17.20;99.90;;;;;;5011798;28;20534;-70
2022/06/01 08:57:07;;;;;;;24.57;22.20;;;17.30;99.90;;;;;;5012841;28;20545;-71
2022/06/01 08:59:41;;;;;;;26.43;23.80;;;17.10;99.90;;;;;;5011567;28;20474;-71
2022/06/01 09:02:22;;;;;;;25.90;23.35;;;16.80;99.90;;;;;;4994737;28;20988;-70
2022/06/01 09:04:56;;;;;;;28.55;25.67;;;16.60;99.90;;;;;;4993671;28;20227;-71
2022/06/01 09:07:27;;;;;;;27.85;24.95;;;16.30;99.90;;;;;;4994462;28;20209;-71
2022/06/01 09:10:13;;;;;;;27.02;24.40;;;16.00;99.90;;;;;;5010059;28;20659;-70
2022/06/01 09:12:41;;;;;;;28.95;26.15;;;15.80;99.90;;;;;;4986518;28;20216;-70
2022/06/01 09:15:14;;;;;;;41.60;30.52;;;15.60;99.90;;;;;;5010130;28;20313;-69
2022/06/01 09:17:43;;;;;;;30.63;27.55;;;15.30;99.90;;;;;;5014608;28;20215;-69
2022/06/01 09:22:57;;;;;;;33.20;27.85;;;14.50;99.90;;;;;;5012134;28;20220;-67
2022/06/01 09:25:32;;;;;;;44.20;35.78;;;14.10;99.90;;;;;;5011511;28;20224;-68
2022/06/01 09:28:03;;;;;;;35.67;31.48;;;13.90;99.90;;;;;;5014828;28;20208;-69
2022/06/01 09:30:35;;;;;;;39.47;34.90;;;13.70;99.90;;;;;;5023128;28;20205;-68
2022/06/01 09:33:23;;;;;;;44.70;33.83;;;13.50;99.90;;;;;;5010247;28;20667;-71
2022/06/01 09:36:02;;;;;;;41.33;33.75;;;13.10;99.90;;;;;;5009290;28;20240;-69
2022/06/01 09:38:40;;;;;;;28.95;25.85;;;12.70;99.90;;;;;;4998727;28;20227;-68
2022/06/01 09:41:09;;;;;;;36.20;31.02;;;12.40;99.90;;;;;;5013629;28;20211;-70
2022/06/01 09:43:40;;;;;;;31.17;26.77;;;12.40;99.90;;;;;;5004264;28;20280;-69
2022/06/01 09:46:08;;;;;;;31.40;27.95;;;12.30;99.90;;;;;;5012196;28;20587;-70
2022/06/01 09:48:37;;;;;;;29.15;26.15;;;12.50;99.90;;;;;;5015566;28;20207;-69
2022/06/01 09:51:20;;;;;;;27.45;24.40;;;12.60;99.90;;;;;;5014747;28;20314;-69
2022/06/01 09:53:50;;;;;;;28.58;25.67;;;12.80;99.90;;;;;;5011007;28;20315;-68
2022/06/01 09:56:19;;;;;;;34.38;30.35;;;13.00;99.90;;;;;;5014288;28;20231;-68
2022/06/01 10:07:22;;;;;;;26.15;23.45;;;16.60;99.90;;;;;;5011873;28;20214;-71
2022/06/01 10:09:52;;;;;;;25.97;23.47;;;17.70;99.90;;;;;;5014832;28;20298;-69
2022/06/01 10:12:29;;;;;;;22.03;19.80;;;18.10;99.90;;;;;;5013385;28;20487;-71
2022/06/01 10:14:58;;;;;;;25.40;22.80;;;18.20;99.90;;;;;;4993383;28;21017;-69
2022/06/01 10:17:34;;;;;;;25.47;22.10;;;18.10;99.90;;;;;;5012065;28;20501;-71
2022/06/01 10:20:16;;;;;;;28.70;25.80;;;17.90;99.90;;;;;;5012291;28;20449;-71
2022/06/01 10:22:59;;;;;;;32.90;29.58;;;17.50;99.90;;;;;;5012491;28;20558;-70
2022/06/01 10:25:32;;;;;;;33.30;29.92;;;16.90;99.90;;;;;;5011585;28;20240;-69
2022/06/01 10:28:02;;;;;;;32.60;29.30;;;16.40;99.90;;;;;;5010770;28;20207;-71
2022/06/01 10:30:33;;;;;;;17.83;16.10;;;16.20;99.90;;;;;;5010490;28;20292;-70
2022/06/01 10:33:05;;;;;;;15.15;13.65;;;15.70;99.90;;;;;;5019339;28;20231;-71
2022/06/01 10:35:38;;;;;;;12.23;11.05;;;15.50;99.90;;;;;;5018740;28;20589;-70
2022/06/01 10:38:18;;;;;;;9.45;8.55;;;15.30;99.90;;;;;;5009259;28;20222;-71
2022/06/01 10:40:49;;;;;;;8.57;7.65;;;15.20;99.90;;;;;;5012173;28;20202;-70
2022/06/01 10:43:30;;;;;;;9.98;8.93;;;14.90;99.90;;;;;;5009265;28;20291;-71
2022/06/01 10:46:03;;;;;;;10.45;8.98;;;14.70;99.90;;;;;;5012094;28;20225;-71
2022/06/01 10:48:35;;;;;;;9.23;8.43;;;14.50;99.90;;;;;;4984359;28;20207;-71
2022/06/01 10:51:10;;;;;;;8.20;7.43;;;14.30;99.90;;;;;;5012722;28;20300;-70
2022/06/01 10:53:48;;;;;;;11.13;10.05;;;14.40;99.90;;;;;;5013629;28;20632;-70
2022/06/01 10:56:16;;;;;;;10.65;9.73;;;14.30;99.90;;;;;;5011458;28;20721;-68
2022/06/01 10:58:43;;;;;;;12.63;11.10;;;14.10;99.90;;;;;;5014283;28;20812;-68
2022/06/01 11:01:15;;;;;;;9.57;8.77;;;14.00;99.90;;;;;;5012838;28;20686;-69
2022/06/01 11:04:09;;;;;;;9.13;8.23;;;14.00;99.90;;;;;;5011961;28;20213;-70
2022/06/01 11:06:58;;;;;;;8.98;8.07;;;13.90;99.90;;;;;;4998374;28;20220;-69
2022/06/01 11:09:33;;;;;;;7.85;7.15;;;13.80;99.90;;;;;;4991058;28;20300;-69
2022/06/01 11:12:07;;;;;;;9.00;8.15;;;13.80;99.90;;;;;;5009924;28;20313;-71
2022/06/01 11:15:02;;;;;;;11.40;10.27;;;13.80;99.90;;;;;;5001397;28;20642;-68
2022/06/01 11:17:37;;;;;;;11.15;9.98;;;13.90;99.90;;;;;;4990519;28;20208;-69
2022/06/01 11:20:38;;;;;;;17.55;15.65;;;14.10;99.90;;;;;;5009232;28;20290;-70
2022/06/01 11:23:18;;;;;;;17.38;15.57;;;14.40;99.90;;;;;;5010060;28;20295;-69
2022/06/01 11:25:55;;;;;;;19.92;18.02;;;14.60;99.90;;;;;;5013027;28;20251;-71
2022/06/01 11:28:46;;;;;;;17.55;15.77;;;14.90;99.90;;;;;;4988276;28;20211;-70
2022/06/01 11:31:18;;;;;;;12.18;10.30;;;15.30;99.90;;;;;;5011234;28;20311;-70
2022/06/01 11:33:51;;;;;;;8.88;8.18;;;15.70;99.90;;;;;;5011037;28;20197;-68
2022/06/01 11:36:26;;;;;;;9.48;8.57;;;15.90;99.90;;;;;;4999096;28;20224;-70
2022/06/01 11:38:57;;;;;;;11.13;8.00;;;16.40;99.90;;;;;;5002073;28;20209;-70
2022/06/01 11:41:33;;;;;;;6.65;6.05;;;16.70;99.90;;;;;;5025989;28;20206;-71
2022/06/01 11:44:03;;;;;;;9.65;6.50;;;16.90;99.90;;;;;;5008833;28;20194;-70
2022/06/01 11:46:40;;;;;;;6.97;6.28;;;17.00;99.90;;;;;;5009882;28;20322;-70
2022/06/01 11:49:13;;;;;;;7.83;6.97;;;17.10;99.90;;;;;;4991260;28;20685;-71
2022/06/01 11:51:49;;;;;;;9.37;8.57;;;17.20;99.90;;;;;;5011455;28;20491;-71
2022/06/01 11:54:27;;;;;;;9.25;6.97;;;17.10;99.90;;;;;;5012107;28;20454;-70
2022/06/01 11:57:00;;;;;;;8.40;6.27;;;17.00;99.90;;;;;;5013279;28;20235;-71
2022/06/01 11:59:35;;;;;;;8.20;7.38;;;17.00;99.90;;;;;;4994481;28;20824;-70
2022/06/01 12:02:18;;;;;;;11.33;9.40;;;16.90;99.90;;;;;;5005649;28;20209;-71
2022/06/01 12:04:54;;;;;;;8.90;8.10;;;16.90;99.90;;;;;;5008319;28;20470;-70
2022/06/01 12:07:26;;;;;;;9.50;8.60;;;17.00;99.90;;;;;;5014654;28;20541;-71
2022/06/01 12:10:01;;;;;;;8.57;7.77;;;17.10;99.90;;;;;;5013147;28;20930;-69
2022/06/01 12:15:32;;;;;;;7.40;6.50;;;17.30;99.90;;;;;;5086115;27;20541;-72
2022/06/01 12:18:06;;;;;;;5.83;5.23;;;17.80;99.90;;;;;;5065506;28;20452;-73
2022/06/01 12:20:47;;;;;;;7.40;5.77;;;18.10;99.90;;;;;;5065895;28;20796;-71
2022/06/01 12:29:36;;;;;;;6.30;5.63;;;19.10;99.90;;;;;;5068741;28;20417;-73
2022/06/01 12:32:15;;;;;;;6.27;5.73;;;19.30;99.90;;;;;;5067193;28;20510;-73
2022/06/01 12:34:53;;;;;;;5.10;4.60;;;19.80;99.90;;;;;;5061108;28;20578;-73
2022/06/01 12:37:24;;;;;;;5.33;4.93;;;19.80;96.90;;;;;;5065461;28;21168;-74
2022/06/01 12:39:56;;;;;;;5.13;4.63;;;20.00;99.40;;;;;;5057352;28;20478;-73
2022/06/01 12:42:30;;;;;;;7.03;4.70;;;19.80;97.50;;;;;;5067776;28;20444;-74
2022/06/01 12:45:05;;;;;;;5.17;4.70;;;19.80;96.30;;;;;;5068788;28;20658;-72
2022/06/01 12:47:37;;;;;;;4.37;3.97;;;19.70;97.10;;;;;;5068303;28;20624;-72
2022/06/01 12:50:11;;;;;;;5.47;4.80;;;19.70;96.20;;;;;;5068110;28;20525;-75
2022/06/01 12:52:38;;;;;;;4.27;3.87;;;19.80;96.80;;;;;;5067798;28;20831;-74
2022/06/01 12:55:07;;;;;;;4.00;3.67;;;19.80;95.90;;;;;;5068896;28;20509;-73
2022/06/01 12:57:39;;;;;;;3.83;3.47;;;19.70;95.70;;;;;;5071458;28;20440;-73
2022/06/01 13:00:09;;;;;;;4.53;3.00;;;19.50;94.20;;;;;;5063444;28;20900;-74
2022/06/01 13:02:39;;;;;;;4.37;3.60;;;19.50;95.10;;;;;;5067717;28;20441;-73
2022/06/01 13:05:09;;;;;;;3.13;2.87;;;19.30;94.90;;;;;;5060792;28;20469;-74
2022/06/01 13:07:40;;;;;;;6.60;3.47;;;19.20;95.00;;;;;;5068665;28;20525;-73
2022/06/01 13:10:11;;;;;;;3.83;3.53;;;19.20;95.40;;;;;;5066806;28;20491;-74
2022/06/01 13:12:38;;;;;;;3.67;3.37;;;19.00;96.90;;;;;;5067710;28;20452;-73
2022/06/01 13:15:17;;;;;;;3.20;2.50;;;18.90;97.30;;;;;;5066508;28;20491;-74
2022/06/01 13:17:52;;;;;;;2.87;2.10;;;18.80;94.20;;;;;;5053472;28;20466;-74
2022/06/01 13:20:24;;;;;;;2.80;2.57;;;18.70;94.30;;;;;;5060449;28;20498;-73
2022/06/01 13:22:53;;;;;;;3.97;2.83;;;18.70;93.90;;;;;;5069180;28;20449;-73
2022/06/01 13:25:25;;;;;;;3.27;2.97;;;18.70;94.70;;;;;;5054204;28;20818;-72
2022/06/01 13:27:53;;;;;;;5.40;3.50;;;18.80;95.10;;;;;;5054725;28;20812;-73
2022/06/01 13:30:22;;;;;;;7.30;4.40;;;18.40;95.90;;;;;;5054291;28;21095;-73